createdAt,value
2018-03-02T00:00:51.816Z,0
2018-03-02T00:01:54.794Z,0
2018-03-02T00:02:57.205Z,0
2018-03-02T00:03:59.615Z,0
2018-03-02T00:05:02.038Z,0
2018-03-02T00:06:04.439Z,0
2018-03-02T00:07:06.847Z,0
2018-03-02T00:08:09.828Z,0
2018-03-02T00:09:12.547Z,0
2018-03-02T00:10:14.960Z,0
2018-03-02T00:11:17.383Z,0
2018-03-02T00:12:20.072Z,0
2018-03-02T00:13:22.482Z,0
2018-03-02T00:14:25.202Z,0
2018-03-02T00:15:27.606Z,0
2018-03-02T00:16:30.021Z,0
2018-03-02T00:17:32.428Z,0
2018-03-02T00:18:34.835Z,0
2018-03-02T00:19:37.818Z,0
2018-03-02T00:20:40.220Z,0
2018-03-02T00:21:43.207Z,0
2018-03-02T00:22:45.615Z,0
2018-03-02T00:23:48.292Z,0
2018-03-02T00:24:50.702Z,0
2018-03-02T00:25:53.389Z,0
2018-03-02T00:26:55.801Z,0
2018-03-02T00:27:58.209Z,0
2018-03-02T00:29:00.922Z,0
2018-03-02T00:30:03.334Z,0
2018-03-02T00:31:05.745Z,0
2018-03-02T00:32:08.442Z,0
2018-03-02T00:33:10.846Z,0
2018-03-02T00:34:13.263Z,0
2018-03-02T00:35:15.667Z,0
2018-03-02T00:36:18.086Z,0
2018-03-02T00:37:20.793Z,0
2018-03-02T00:38:23.192Z,0
2018-03-02T00:39:25.912Z,0
2018-03-02T00:40:28.604Z,0
2018-03-02T00:41:31.017Z,0
2018-03-02T00:42:33.705Z,0
2018-03-02T00:43:36.393Z,0
2018-03-02T00:44:38.803Z,0
2018-03-02T00:45:41.226Z,0
2018-03-02T00:46:43.626Z,0
2018-03-02T00:47:46.027Z,0
2018-03-02T00:48:48.447Z,0
2018-03-02T00:49:50.842Z,0
2018-03-02T00:50:53.252Z,0
2018-03-02T00:51:55.955Z,0
2018-03-02T00:52:58.358Z,0
2018-03-02T00:54:01.063Z,0
2018-03-02T00:55:03.467Z,0
2018-03-02T00:56:05.884Z,0
2018-03-02T00:57:08.616Z,0
2018-03-02T00:58:11.026Z,0
2018-03-02T00:59:13.442Z,0
2018-03-02T01:00:15.843Z,0
2018-03-02T01:01:18.249Z,0
2018-03-02T01:02:20.952Z,0
2018-03-02T01:03:23.357Z,0
2018-03-02T01:04:26.070Z,0
2018-03-02T01:05:28.484Z,0
2018-03-02T01:06:30.886Z,0
2018-03-02T01:07:33.296Z,0
2018-03-02T01:08:36.002Z,0
2018-03-02T01:09:38.398Z,0
2018-03-02T01:10:41.096Z,0
2018-03-02T01:11:43.566Z,0
2018-03-02T01:12:45.905Z,0
2018-03-02T01:13:48.316Z,0
2018-03-02T01:14:50.725Z,0
2018-03-02T01:15:53.415Z,0
2018-03-02T01:16:55.820Z,0
2018-03-02T01:17:58.224Z,0
2018-03-02T01:19:00.620Z,0
2018-03-02T01:20:03.028Z,0
2018-03-02T01:21:05.436Z,0
2018-03-02T01:22:08.138Z,0
2018-03-02T01:23:10.532Z,0
2018-03-02T01:24:12.946Z,0
2018-03-02T01:25:15.347Z,0
2018-03-02T01:26:17.764Z,0
2018-03-02T01:27:20.451Z,0
2018-03-02T01:28:22.854Z,0
2018-03-02T01:29:25.257Z,0
2018-03-02T01:30:27.669Z,0
2018-03-02T01:31:30.361Z,0
2018-03-02T01:32:33.042Z,0
2018-03-02T01:33:35.435Z,0
2018-03-02T01:34:37.843Z,0
2018-03-02T01:35:40.243Z,0
2018-03-02T01:36:42.649Z,0
2018-03-02T01:37:45.057Z,0
2018-03-02T01:38:47.464Z,0
2018-03-02T01:39:50.160Z,0
2018-03-02T01:40:52.566Z,0
2018-03-02T01:41:54.968Z,0
2018-03-02T01:42:57.953Z,0
2018-03-02T01:44:00.353Z,0
2018-03-02T01:45:02.772Z,0
2018-03-02T01:46:05.458Z,0
2018-03-02T01:47:08.143Z,0
2018-03-02T01:48:10.543Z,0
2018-03-02T01:49:12.936Z,0
2018-03-02T01:50:15.344Z,0
2018-03-02T01:51:17.751Z,0
2018-03-02T01:52:20.439Z,0
2018-03-02T01:53:23.134Z,0
2018-03-02T01:54:25.535Z,0
2018-03-02T01:55:27.936Z,0
2018-03-02T01:56:30.348Z,0
2018-03-02T01:57:32.742Z,0
2018-03-02T01:58:35.149Z,0
2018-03-02T01:59:37.547Z,0
2018-03-02T02:00:39.958Z,0
2018-03-02T02:01:42.362Z,0
2018-03-02T02:02:44.767Z,0
2018-03-02T02:03:47.163Z,0
2018-03-02T02:04:49.860Z,0
2018-03-02T02:05:52.549Z,0
2018-03-02T02:06:54.948Z,0
2018-03-02T02:07:57.353Z,0
2018-03-02T02:08:59.762Z,0
2018-03-02T02:10:02.439Z,0
2018-03-02T02:11:04.854Z,0
2018-03-02T02:12:07.549Z,0
2018-03-02T02:13:09.950Z,0
2018-03-02T02:14:12.358Z,0
2018-03-02T02:15:15.359Z,0
2018-03-02T02:16:17.749Z,0
2018-03-02T02:17:20.147Z,0
2018-03-02T02:18:22.558Z,0
2018-03-02T02:19:25.243Z,0
2018-03-02T02:20:27.634Z,0
2018-03-02T02:21:30.043Z,0
2018-03-02T02:22:32.736Z,0
2018-03-02T02:23:35.140Z,0
2018-03-02T02:24:37.540Z,0
2018-03-02T02:25:39.941Z,0
2018-03-02T02:26:42.338Z,0
2018-03-02T02:27:44.754Z,0
2018-03-02T02:28:47.145Z,0
2018-03-02T02:29:49.553Z,0
2018-03-02T02:30:52.526Z,0
2018-03-02T02:31:54.931Z,0
2018-03-02T02:32:57.930Z,0
2018-03-02T02:34:00.637Z,0
2018-03-02T02:35:03.328Z,0
2018-03-02T02:36:06.024Z,0
2018-03-02T02:37:08.427Z,0
2018-03-02T02:38:10.832Z,0
2018-03-02T02:39:13.238Z,0
2018-03-02T02:40:15.650Z,0
2018-03-02T02:41:18.043Z,0
2018-03-02T02:42:20.732Z,0
2018-03-02T02:43:23.135Z,0
2018-03-02T02:44:25.582Z,0
2018-03-02T02:45:27.937Z,0
2018-03-02T02:46:30.344Z,0
2018-03-02T02:47:33.041Z,0
2018-03-02T02:48:35.444Z,0
2018-03-02T02:49:37.852Z,0
2018-03-02T02:50:40.262Z,0
2018-03-02T02:51:42.654Z,0
2018-03-02T02:52:45.947Z,0
2018-03-02T02:53:48.695Z,0
2018-03-02T02:54:51.088Z,0
2018-03-02T02:55:53.485Z,0
2018-03-02T02:56:55.892Z,0
2018-03-02T02:57:58.289Z,0
2018-03-02T02:59:00.972Z,0
2018-03-02T03:00:03.402Z,0
2018-03-02T03:01:05.766Z,0
2018-03-02T03:02:08.773Z,0
2018-03-02T03:03:11.173Z,0
2018-03-02T03:04:13.574Z,0
2018-03-02T03:05:16.275Z,0
2018-03-02T03:06:18.958Z,0
2018-03-02T03:07:21.647Z,0
2018-03-02T03:08:24.065Z,0
2018-03-02T03:09:26.744Z,0
2018-03-02T03:10:29.149Z,0
2018-03-02T03:11:31.841Z,0
2018-03-02T03:12:34.521Z,0
2018-03-02T03:13:36.929Z,0
2018-03-02T03:14:39.329Z,0
2018-03-02T03:15:42.011Z,0
2018-03-02T03:16:44.418Z,0
2018-03-02T03:17:46.813Z,0
2018-03-02T03:18:49.224Z,0
2018-03-02T03:19:51.624Z,0
2018-03-02T03:20:54.315Z,0
2018-03-02T03:21:56.717Z,0
2018-03-02T03:22:59.118Z,0
2018-03-02T03:24:01.520Z,0
2018-03-02T03:25:03.922Z,0
2018-03-02T03:26:06.320Z,0
2018-03-02T03:27:09.304Z,0
2018-03-02T03:28:12.279Z,0
2018-03-02T03:29:14.685Z,0
2018-03-02T03:30:17.083Z,0
2018-03-02T03:31:19.492Z,0
2018-03-02T03:32:21.896Z,0
2018-03-02T03:33:24.301Z,0
2018-03-02T03:34:26.691Z,0
2018-03-02T03:35:29.098Z,0
2018-03-02T03:36:31.490Z,0
2018-03-02T03:37:34.180Z,0
2018-03-02T03:38:36.582Z,0
2018-03-02T03:39:38.979Z,0
2018-03-02T03:40:41.373Z,0
2018-03-02T03:41:43.786Z,0
2018-03-02T03:42:46.181Z,0
2018-03-02T03:43:48.582Z,0
2018-03-02T03:44:50.984Z,0
2018-03-02T03:45:53.391Z,0
2018-03-02T03:46:55.790Z,0
2018-03-02T03:47:58.486Z,0
2018-03-02T03:49:00.879Z,0
2018-03-02T03:50:03.289Z,0
2018-03-02T03:51:05.969Z,0
2018-03-02T03:52:08.373Z,0
2018-03-02T03:53:10.777Z,0
2018-03-02T03:54:13.171Z,0
2018-03-02T03:55:15.575Z,0
2018-03-02T03:56:17.981Z,0
2018-03-02T03:57:20.374Z,0
2018-03-02T03:58:22.790Z,0
2018-03-02T03:59:25.184Z,0
2018-03-02T04:00:27.582Z,0
2018-03-02T04:01:30.272Z,0
2018-03-02T04:02:32.678Z,0
2018-03-02T04:03:35.074Z,0
2018-03-02T04:04:37.764Z,0
2018-03-02T04:05:40.164Z,0
2018-03-02T04:06:42.562Z,0
2018-03-02T04:07:44.981Z,0
2018-03-02T04:08:47.364Z,0
2018-03-02T04:09:49.768Z,0
2018-03-02T04:10:52.458Z,0
2018-03-02T04:11:54.857Z,0
2018-03-02T04:12:57.255Z,0
2018-03-02T04:13:59.662Z,0
2018-03-02T04:15:02.055Z,0
2018-03-02T04:16:04.456Z,0
2018-03-02T04:17:06.858Z,0
2018-03-02T04:18:09.255Z,0
2018-03-02T04:19:11.653Z,0
2018-03-02T04:20:14.050Z,0
2018-03-02T04:21:16.449Z,0
2018-03-02T04:22:18.845Z,0
2018-03-02T04:23:21.311Z,0
2018-03-02T04:24:23.647Z,0
2018-03-02T04:25:26.052Z,0
2018-03-02T04:26:28.454Z,0
2018-03-02T04:27:30.856Z,0
2018-03-02T04:28:33.538Z,0
2018-03-02T04:29:35.946Z,0
2018-03-02T04:30:38.617Z,0
2018-03-02T04:31:41.021Z,0
2018-03-02T04:32:43.432Z,0
2018-03-02T04:33:46.103Z,0
2018-03-02T04:34:48.507Z,0
2018-03-02T04:35:50.906Z,0
2018-03-02T04:36:53.311Z,0
2018-03-02T04:37:55.709Z,0
2018-03-02T04:38:58.115Z,0
2018-03-02T04:40:00.509Z,0
2018-03-02T04:41:02.915Z,0
2018-03-02T04:42:05.317Z,0
2018-03-02T04:43:07.708Z,0
2018-03-02T04:44:10.110Z,0
2018-03-02T04:45:12.511Z,0
2018-03-02T04:46:14.905Z,0
2018-03-02T04:47:17.304Z,0
2018-03-02T04:48:19.716Z,0
2018-03-02T04:49:22.396Z,0
2018-03-02T04:50:24.805Z,0
2018-03-02T04:51:27.209Z,0
2018-03-02T04:52:29.896Z,0
2018-03-02T04:53:32.592Z,0
2018-03-02T04:54:34.998Z,0
2018-03-02T04:55:37.382Z,0
2018-03-02T04:56:39.791Z,0
2018-03-02T04:57:42.487Z,0
2018-03-02T04:58:44.883Z,0
2018-03-02T04:59:47.288Z,0
2018-03-02T05:00:49.974Z,0
2018-03-02T05:01:52.376Z,0
2018-03-02T05:02:54.770Z,0
2018-03-02T05:03:57.181Z,0
2018-03-02T05:04:59.588Z,0
2018-03-02T05:06:01.989Z,0
2018-03-02T05:07:04.396Z,0
2018-03-02T05:08:06.803Z,0
2018-03-02T05:09:09.204Z,0
2018-03-02T05:10:11.597Z,0
2018-03-02T05:11:13.994Z,0
2018-03-02T05:12:16.393Z,0
2018-03-02T05:13:19.081Z,0
2018-03-02T05:14:21.485Z,0
2018-03-02T05:15:23.883Z,0
2018-03-02T05:16:26.574Z,0
2018-03-02T05:17:29.261Z,0
2018-03-02T05:18:31.943Z,0
2018-03-02T05:19:34.353Z,0
2018-03-02T05:20:36.756Z,0
2018-03-02T05:21:39.466Z,0
2018-03-02T05:22:41.872Z,0
2018-03-02T05:23:44.547Z,0
2018-03-02T05:24:47.247Z,0
2018-03-02T05:25:49.644Z,0
2018-03-02T05:26:52.364Z,0
2018-03-02T05:27:54.759Z,0
2018-03-02T05:28:57.180Z,0
2018-03-02T05:29:59.568Z,0
2018-03-02T05:31:02.274Z,0
2018-03-02T05:32:05.257Z,0
2018-03-02T05:33:08.216Z,0
2018-03-02T05:34:10.620Z,0
2018-03-02T05:35:13.019Z,0
2018-03-02T05:36:15.426Z,0
2018-03-02T05:37:17.827Z,0
2018-03-02T05:38:20.513Z,0
2018-03-02T05:39:23.213Z,0
2018-03-02T05:40:25.624Z,0
2018-03-02T05:41:28.018Z,0
2018-03-02T05:42:30.411Z,0
2018-03-02T05:43:32.830Z,0
2018-03-02T05:44:35.220Z,0
2018-03-02T05:45:37.926Z,0
2018-03-02T05:46:40.335Z,0
2018-03-02T05:47:42.722Z,0
2018-03-02T05:48:45.416Z,0
2018-03-02T05:49:47.808Z,0
2018-03-02T05:50:50.218Z,1
2018-03-02T05:51:52.620Z,1
2018-03-02T05:52:55.016Z,1
2018-03-02T05:53:57.406Z,1
2018-03-02T05:54:59.817Z,1
2018-03-02T05:56:02.212Z,1
2018-03-02T05:57:04.895Z,1
2018-03-02T05:58:07.298Z,2
2018-03-02T05:59:10.020Z,2
2018-03-02T06:00:12.450Z,2
2018-03-02T06:01:15.136Z,2
2018-03-02T06:02:17.534Z,2
2018-03-02T06:03:19.934Z,3
2018-03-02T06:04:22.339Z,3
2018-03-02T06:05:25.029Z,3
2018-03-02T06:06:27.419Z,4
2018-03-02T06:07:30.175Z,4
2018-03-02T06:08:32.528Z,4
2018-03-02T06:09:35.504Z,5
2018-03-02T06:10:37.909Z,5
2018-03-02T06:11:40.313Z,5
2018-03-02T06:12:42.714Z,6
2018-03-02T06:13:45.127Z,6
2018-03-02T06:14:47.526Z,6
2018-03-02T06:15:49.926Z,7
2018-03-02T06:16:52.320Z,7
2018-03-02T06:17:54.735Z,7
2018-03-02T06:18:57.123Z,8
2018-03-02T06:19:59.530Z,8
2018-03-02T06:21:02.233Z,9
2018-03-02T06:22:04.622Z,9
2018-03-02T06:23:07.030Z,10
2018-03-02T06:24:09.432Z,10
2018-03-02T06:25:12.114Z,10
2018-03-02T06:26:14.814Z,11
2018-03-02T06:27:17.211Z,11
2018-03-02T06:28:19.602Z,12
2018-03-02T06:29:22.605Z,12
2018-03-02T06:30:24.999Z,13
2018-03-02T06:31:27.693Z,13
2018-03-02T06:32:30.097Z,14
2018-03-02T06:33:32.490Z,14
2018-03-02T06:34:34.893Z,14
2018-03-02T06:35:37.289Z,15
2018-03-02T06:36:39.679Z,15
2018-03-02T06:37:42.095Z,16
2018-03-02T06:38:44.766Z,16
2018-03-02T06:39:47.170Z,17
2018-03-02T06:40:49.572Z,17
2018-03-02T06:41:51.973Z,18
2018-03-02T06:42:54.379Z,18
2018-03-02T06:43:56.770Z,18
2018-03-02T06:44:59.187Z,18
2018-03-02T06:46:01.866Z,19
2018-03-02T06:47:04.262Z,19
2018-03-02T06:48:06.945Z,20
2018-03-02T06:49:09.340Z,20
2018-03-02T06:50:11.738Z,21
2018-03-02T06:51:14.147Z,21
2018-03-02T06:52:16.546Z,22
2018-03-02T06:53:18.951Z,22
2018-03-02T06:54:21.361Z,23
2018-03-02T06:55:23.760Z,23
2018-03-02T06:56:26.154Z,23
2018-03-02T06:57:28.555Z,24
2018-03-02T06:58:30.952Z,24
2018-03-02T06:59:33.349Z,25
2018-03-02T07:00:35.757Z,25
2018-03-02T07:01:38.147Z,26
2018-03-02T07:02:40.843Z,26
2018-03-02T07:03:43.238Z,27
2018-03-02T07:04:45.926Z,27
2018-03-02T07:05:48.322Z,28
2018-03-02T07:06:50.723Z,28
2018-03-02T07:07:53.115Z,29
2018-03-02T07:08:55.514Z,29
2018-03-02T07:09:57.916Z,30
2018-03-02T07:11:00.311Z,30
2018-03-02T07:12:02.711Z,31
2018-03-02T07:13:05.121Z,31
2018-03-02T07:14:08.118Z,32
2018-03-02T07:15:10.609Z,32
2018-03-02T07:16:14.211Z,33
2018-03-02T07:17:17.537Z,33
2018-03-02T07:18:19.893Z,34
2018-03-02T07:19:22.305Z,34
2018-03-02T07:20:24.712Z,35
2018-03-02T07:21:27.160Z,35
2018-03-02T07:22:29.522Z,36
2018-03-02T07:23:31.926Z,36
2018-03-02T07:24:34.324Z,36
2018-03-02T07:25:36.726Z,37
2018-03-02T07:26:39.126Z,37
2018-03-02T07:27:41.815Z,38
2018-03-02T07:28:44.219Z,38
2018-03-02T07:29:46.613Z,39
2018-03-02T07:30:49.014Z,39
2018-03-02T07:31:51.417Z,40
2018-03-02T07:32:53.845Z,40
2018-03-02T07:33:56.223Z,41
2018-03-02T07:34:58.626Z,63
2018-03-02T07:36:01.029Z,95
2018-03-02T07:37:03.451Z,104
2018-03-02T07:38:06.138Z,110
2018-03-02T07:39:08.824Z,111
2018-03-02T07:40:11.222Z,118
2018-03-02T07:41:13.632Z,121
2018-03-02T07:42:16.313Z,130
2018-03-02T07:43:18.713Z,135
2018-03-02T07:44:21.460Z,130
2018-03-02T07:45:24.157Z,126
2018-03-02T07:46:26.556Z,125
2018-03-02T07:47:28.957Z,128
2018-03-02T07:48:31.365Z,136
2018-03-02T07:49:33.761Z,137
2018-03-02T07:50:36.172Z,145
2018-03-02T07:51:38.570Z,146
2018-03-02T07:52:40.965Z,142
2018-03-02T07:53:43.374Z,159
2018-03-02T07:54:45.779Z,152
2018-03-02T07:55:48.181Z,155
2018-03-02T07:56:50.589Z,176
2018-03-02T07:57:52.995Z,169
2018-03-02T07:58:55.691Z,146
2018-03-02T07:59:58.100Z,146
2018-03-02T08:01:00.777Z,159
2018-03-02T08:02:03.184Z,178
2018-03-02T08:03:05.606Z,182
2018-03-02T08:04:08.009Z,164
2018-03-02T08:05:10.412Z,167
2018-03-02T08:06:12.813Z,145
2018-03-02T08:07:15.215Z,148
2018-03-02T08:08:17.627Z,158
2018-03-02T08:09:20.034Z,165
2018-03-02T08:10:22.431Z,160
2018-03-02T08:11:24.844Z,150
2018-03-02T08:12:27.258Z,173
2018-03-02T08:13:29.664Z,193
2018-03-02T08:14:32.078Z,181
2018-03-02T08:15:34.479Z,167
2018-03-02T08:16:36.892Z,164
2018-03-02T08:17:39.296Z,177
2018-03-02T08:18:41.710Z,169
2018-03-02T08:19:44.123Z,171
2018-03-02T08:20:46.532Z,180
2018-03-02T08:21:48.938Z,181
2018-03-02T08:22:51.638Z,170
2018-03-02T08:23:54.044Z,183
2018-03-02T08:24:56.470Z,197
2018-03-02T08:25:58.880Z,195
2018-03-02T08:27:01.281Z,198
2018-03-02T08:28:03.688Z,197
2018-03-02T08:29:06.100Z,205
2018-03-02T08:30:08.502Z,203
2018-03-02T08:31:11.501Z,184
2018-03-02T08:32:13.914Z,197
2018-03-02T08:33:16.320Z,203
2018-03-02T08:34:18.746Z,203
2018-03-02T08:35:21.146Z,212
2018-03-02T08:36:23.569Z,226
2018-03-02T08:37:25.983Z,227
2018-03-02T08:38:28.701Z,231
2018-03-02T08:39:31.114Z,219
2018-03-02T08:40:33.657Z,207
2018-03-02T08:41:38.138Z,210
2018-03-02T08:42:43.899Z,224
2018-03-02T08:43:47.364Z,208
2018-03-02T08:44:49.778Z,225
2018-03-02T08:45:52.475Z,230
2018-03-02T08:46:54.891Z,228
2018-03-02T08:47:57.311Z,229
2018-03-02T08:48:59.725Z,225
2018-03-02T08:50:02.160Z,233
2018-03-02T08:51:04.845Z,215
2018-03-02T08:52:07.553Z,228
2018-03-02T08:53:10.540Z,241
2018-03-02T08:54:12.954Z,240
2018-03-02T08:55:15.366Z,254
2018-03-02T08:56:17.778Z,264
2018-03-02T08:57:20.184Z,260
2018-03-02T08:58:22.603Z,262
2018-03-02T08:59:25.020Z,266
2018-03-02T09:00:27.703Z,266
2018-03-02T09:01:30.128Z,251
2018-03-02T09:02:32.539Z,262
2018-03-02T09:03:34.961Z,270
2018-03-02T09:04:37.369Z,257
2018-03-02T09:05:39.784Z,270
2018-03-02T09:06:42.482Z,258
2018-03-02T09:07:44.899Z,273
2018-03-02T09:08:47.308Z,271
2018-03-02T09:09:49.717Z,254
2018-03-02T09:10:52.444Z,257
2018-03-02T09:11:54.857Z,274
2018-03-02T09:12:57.261Z,266
2018-03-02T09:13:59.676Z,275
2018-03-02T09:15:02.385Z,232
2018-03-02T09:16:04.794Z,235
2018-03-02T09:17:07.493Z,271
2018-03-02T09:18:09.908Z,280
2018-03-02T09:19:12.644Z,269
2018-03-02T09:20:15.061Z,256
2018-03-02T09:21:17.488Z,256
2018-03-02T09:22:19.889Z,276
2018-03-02T09:23:22.309Z,252
2018-03-02T09:24:24.738Z,259
2018-03-02T09:25:27.150Z,255
2018-03-02T09:26:29.568Z,267
2018-03-02T09:27:31.982Z,289
2018-03-02T09:28:34.398Z,281
2018-03-02T09:29:36.811Z,267
2018-03-02T09:30:39.234Z,260
2018-03-02T09:31:41.645Z,278
2018-03-02T09:32:44.064Z,293
2018-03-02T09:33:46.488Z,284
2018-03-02T09:34:49.197Z,278
2018-03-02T09:35:52.219Z,276
2018-03-02T09:36:54.922Z,294
2018-03-02T09:37:57.628Z,303
2018-03-02T09:39:00.049Z,303
2018-03-02T09:40:02.465Z,296
2018-03-02T09:41:04.891Z,294
2018-03-02T09:42:07.294Z,268
2018-03-02T09:43:09.710Z,290
2018-03-02T09:44:12.129Z,287
2018-03-02T09:45:14.552Z,287
2018-03-02T09:46:16.963Z,285
2018-03-02T09:47:19.386Z,307
2018-03-02T09:48:22.099Z,290
2018-03-02T09:49:24.509Z,307
2018-03-02T09:50:26.933Z,290
2018-03-02T09:51:29.650Z,275
2018-03-02T09:52:32.064Z,282
2018-03-02T09:53:34.481Z,297
2018-03-02T09:54:36.902Z,302
2018-03-02T09:55:39.322Z,311
2018-03-02T09:56:42.352Z,301
2018-03-02T09:57:44.767Z,323
2018-03-02T09:58:47.188Z,350
2018-03-02T09:59:49.609Z,366
2018-03-02T10:00:52.026Z,385
2018-03-02T10:01:54.443Z,374
2018-03-02T10:02:56.859Z,389
2018-03-02T10:03:59.276Z,361
2018-03-02T10:05:02.053Z,347
2018-03-02T10:06:04.403Z,343
2018-03-02T10:07:06.818Z,340
2018-03-02T10:08:09.232Z,330
2018-03-02T10:09:11.651Z,345
2018-03-02T10:10:14.076Z,319
2018-03-02T10:11:16.496Z,335
2018-03-02T10:12:18.913Z,336
2018-03-02T10:13:21.339Z,321
2018-03-02T10:14:23.747Z,321
2018-03-02T10:15:26.178Z,302
2018-03-02T10:16:28.891Z,316
2018-03-02T10:17:31.314Z,319
2018-03-02T10:18:33.736Z,325
2018-03-02T10:19:36.442Z,329
2018-03-02T10:20:39.147Z,331
2018-03-02T10:21:41.585Z,303
2018-03-02T10:22:43.999Z,320
2018-03-02T10:23:46.421Z,336
2018-03-02T10:24:48.837Z,296
2018-03-02T10:25:51.261Z,270
2018-03-02T10:26:53.689Z,302
2018-03-02T10:27:56.394Z,331
2018-03-02T10:28:58.825Z,341
2018-03-02T10:30:01.249Z,325
2018-03-02T10:31:03.668Z,308
2018-03-02T10:32:06.375Z,313
2018-03-02T10:33:08.787Z,323
2018-03-02T10:34:11.209Z,350
2018-03-02T10:35:13.632Z,354
2018-03-02T10:36:16.047Z,360
2018-03-02T10:37:18.748Z,353
2018-03-02T10:38:21.165Z,345
2018-03-02T10:39:23.588Z,333
2018-03-02T10:40:26.315Z,362
2018-03-02T10:41:28.725Z,315
2018-03-02T10:42:31.433Z,274
2018-03-02T10:43:33.855Z,309
2018-03-02T10:44:36.564Z,336
2018-03-02T10:45:38.970Z,352
2018-03-02T10:46:41.709Z,373
2018-03-02T10:47:44.137Z,343
2018-03-02T10:48:46.553Z,364
2018-03-02T10:49:48.980Z,396
2018-03-02T10:50:51.402Z,365
2018-03-02T10:51:53.818Z,364
2018-03-02T10:52:56.263Z,357
2018-03-02T10:53:58.675Z,385
2018-03-02T10:55:01.390Z,415
2018-03-02T10:56:04.103Z,401
2018-03-02T10:57:06.519Z,358
2018-03-02T10:58:08.940Z,332
2018-03-02T10:59:11.732Z,347
2018-03-02T11:00:14.165Z,355
2018-03-02T11:01:16.584Z,378
2018-03-02T11:02:19.292Z,372
2018-03-02T11:03:21.989Z,380
2018-03-02T11:04:24.731Z,341
2018-03-02T11:05:27.141Z,359
2018-03-02T11:06:29.857Z,292
2018-03-02T11:07:32.892Z,357
2018-03-02T11:08:35.314Z,429
2018-03-02T11:09:37.738Z,362
2018-03-02T11:10:40.154Z,328
2018-03-02T11:11:42.877Z,343
2018-03-02T11:12:45.294Z,331
2018-03-02T11:13:47.710Z,373
2018-03-02T11:14:50.129Z,376
2018-03-02T11:15:52.546Z,378
2018-03-02T11:16:54.965Z,379
2018-03-02T11:17:57.681Z,377
2018-03-02T11:19:00.098Z,388
2018-03-02T11:20:02.521Z,360
2018-03-02T11:21:04.954Z,371
2018-03-02T11:22:07.374Z,385
2018-03-02T11:23:10.074Z,353
2018-03-02T11:24:12.495Z,388
2018-03-02T11:25:14.955Z,382
2018-03-02T11:26:17.334Z,371
2018-03-02T11:27:19.760Z,372
2018-03-02T11:28:22.168Z,348
2018-03-02T11:29:24.598Z,372
2018-03-02T11:30:27.014Z,356
2018-03-02T11:31:29.731Z,366
2018-03-02T11:32:32.146Z,346
2018-03-02T11:33:34.570Z,336
2018-03-02T11:34:36.982Z,358
2018-03-02T11:35:39.437Z,341
2018-03-02T11:36:42.181Z,345
2018-03-02T11:37:44.594Z,356
2018-03-02T11:38:47.013Z,326
2018-03-02T11:39:49.732Z,342
2018-03-02T11:40:52.142Z,350
2018-03-02T11:41:54.561Z,368
2018-03-02T11:42:56.974Z,344
2018-03-02T11:43:59.398Z,312
2018-03-02T11:45:01.819Z,329
2018-03-02T11:46:04.251Z,343
2018-03-02T11:47:06.705Z,336
2018-03-02T11:48:09.091Z,343
2018-03-02T11:49:11.513Z,342
2018-03-02T11:50:13.930Z,345
2018-03-02T11:51:17.035Z,332
2018-03-02T11:52:19.676Z,342
2018-03-02T11:53:22.439Z,339
2018-03-02T11:54:24.862Z,346
2018-03-02T11:55:27.278Z,386
2018-03-02T11:56:29.693Z,384
2018-03-02T11:57:32.122Z,367
2018-03-02T11:58:34.544Z,376
2018-03-02T11:59:36.949Z,359
2018-03-02T12:00:39.373Z,370
2018-03-02T12:01:42.082Z,354
2018-03-02T12:02:44.504Z,333
2018-03-02T12:03:47.216Z,341
2018-03-02T12:04:49.638Z,383
2018-03-02T12:05:52.061Z,361
2018-03-02T12:06:54.484Z,391
2018-03-02T12:07:56.903Z,373
2018-03-02T12:08:59.322Z,345
2018-03-02T12:10:01.738Z,371
2018-03-02T12:11:04.174Z,351
2018-03-02T12:12:06.590Z,334
2018-03-02T12:13:09.005Z,348
2018-03-02T12:14:11.434Z,324
2018-03-02T12:15:13.857Z,337
2018-03-02T12:16:16.286Z,339
2018-03-02T12:17:18.707Z,303
2018-03-02T12:18:21.126Z,301
2018-03-02T12:19:23.830Z,315
2018-03-02T12:20:26.261Z,312
2018-03-02T12:21:28.680Z,323
2018-03-02T12:22:31.161Z,311
2018-03-02T12:23:33.862Z,301
2018-03-02T12:24:36.282Z,285
2018-03-02T12:25:38.993Z,307
2018-03-02T12:26:41.416Z,302
2018-03-02T12:27:44.135Z,290
2018-03-02T12:28:46.558Z,287
2018-03-02T12:29:48.988Z,314
2018-03-02T12:30:51.413Z,336
2018-03-02T12:31:53.830Z,333
2018-03-02T12:32:56.249Z,317
2018-03-02T12:33:58.976Z,326
2018-03-02T12:35:02.018Z,344
2018-03-02T12:36:04.432Z,310
2018-03-02T12:37:07.131Z,314
2018-03-02T12:38:09.556Z,353
2018-03-02T12:39:12.286Z,322
2018-03-02T12:40:14.713Z,325
2018-03-02T12:41:17.136Z,358
2018-03-02T12:42:19.848Z,345
2018-03-02T12:43:22.274Z,318
2018-03-02T12:44:24.694Z,322
2018-03-02T12:45:27.106Z,340
2018-03-02T12:46:29.534Z,342
2018-03-02T12:47:32.244Z,346
2018-03-02T12:48:34.658Z,344
2018-03-02T12:49:37.075Z,323
2018-03-02T12:50:39.493Z,316
2018-03-02T12:51:41.927Z,356
2018-03-02T12:52:44.347Z,369
2018-03-02T12:53:46.756Z,349
2018-03-02T12:54:49.760Z,339
2018-03-02T12:55:52.175Z,351
2018-03-02T12:56:54.908Z,340
2018-03-02T12:57:57.334Z,346
2018-03-02T12:58:59.754Z,358
2018-03-02T13:00:02.208Z,337
2018-03-02T13:01:04.926Z,329
2018-03-02T13:02:07.344Z,331
2018-03-02T13:03:09.761Z,329
2018-03-02T13:04:12.466Z,345
2018-03-02T13:05:15.179Z,340
2018-03-02T13:06:17.613Z,336
2018-03-02T13:07:20.613Z,344
2018-03-02T13:08:23.020Z,362
2018-03-02T13:09:25.448Z,340
2018-03-02T13:10:27.875Z,306
2018-03-02T13:11:30.302Z,321
2018-03-02T13:12:32.724Z,283
2018-03-02T13:13:35.424Z,301
2018-03-02T13:14:38.140Z,326
2018-03-02T13:15:40.560Z,344
2018-03-02T13:16:42.982Z,314
2018-03-02T13:17:45.409Z,290
2018-03-02T13:18:47.835Z,286
2018-03-02T13:19:50.251Z,257
2018-03-02T13:20:52.671Z,252
2018-03-02T13:21:55.093Z,239
2018-03-02T13:22:57.511Z,251
2018-03-02T13:23:59.942Z,247
2018-03-02T13:25:02.356Z,263
2018-03-02T13:26:04.781Z,291
2018-03-02T13:27:07.200Z,307
2018-03-02T13:28:09.617Z,301
2018-03-02T13:29:12.044Z,318
2018-03-02T13:30:14.496Z,252
2018-03-02T13:31:16.890Z,309
2018-03-02T13:32:19.304Z,145
2018-03-02T13:33:22.013Z,180
2018-03-02T13:34:24.742Z,184
2018-03-02T13:35:27.157Z,193
2018-03-02T13:36:29.580Z,214
2018-03-02T13:37:31.996Z,261
2018-03-02T13:38:34.415Z,207
2018-03-02T13:39:36.840Z,239
2018-03-02T13:40:39.261Z,220
2018-03-02T13:41:41.674Z,206
2018-03-02T13:42:44.098Z,200
2018-03-02T13:43:47.097Z,219
2018-03-02T13:44:49.515Z,250
2018-03-02T13:45:52.219Z,238
2018-03-02T13:46:54.645Z,171
2018-03-02T13:47:57.055Z,188
2018-03-02T13:48:59.472Z,187
2018-03-02T13:50:02.188Z,208
2018-03-02T13:51:04.601Z,169
2018-03-02T13:52:07.020Z,184
2018-03-02T13:53:09.450Z,209
2018-03-02T13:54:12.170Z,169
2018-03-02T13:55:14.594Z,168
2018-03-02T13:56:17.294Z,143
2018-03-02T13:57:19.718Z,143
2018-03-02T13:58:22.135Z,162
2018-03-02T13:59:24.555Z,206
2018-03-02T14:00:26.967Z,177
2018-03-02T14:01:29.387Z,193
2018-03-02T14:02:31.799Z,182
2018-03-02T14:03:34.222Z,193
2018-03-02T14:04:36.634Z,189
2018-03-02T14:05:39.060Z,153
2018-03-02T14:06:41.472Z,172
2018-03-02T14:07:43.904Z,164
2018-03-02T14:08:46.328Z,177
2018-03-02T14:09:48.737Z,200
2018-03-02T14:10:51.448Z,204
2018-03-02T14:11:53.868Z,188
2018-03-02T14:12:56.565Z,192
2018-03-02T14:13:58.981Z,141
2018-03-02T14:15:01.692Z,213
2018-03-02T14:16:04.108Z,201
2018-03-02T14:17:06.833Z,188
2018-03-02T14:18:09.244Z,162
2018-03-02T14:19:11.952Z,171
2018-03-02T14:20:14.368Z,171
2018-03-02T14:21:16.785Z,161
2018-03-02T14:22:19.204Z,160
2018-03-02T14:23:21.630Z,161
2018-03-02T14:24:24.035Z,167
2018-03-02T14:25:26.461Z,175
2018-03-02T14:26:29.169Z,172
2018-03-02T14:27:31.591Z,135
2018-03-02T14:28:34.017Z,131
2018-03-02T14:29:36.434Z,131
2018-03-02T14:30:38.846Z,121
2018-03-02T14:31:41.276Z,93
2018-03-02T14:32:43.688Z,98
2018-03-02T14:33:46.394Z,100
2018-03-02T14:34:49.102Z,102
2018-03-02T14:35:51.521Z,102
2018-03-02T14:36:53.940Z,121
2018-03-02T14:37:56.652Z,110
2018-03-02T14:38:59.066Z,130
2018-03-02T14:40:01.488Z,131
2018-03-02T14:41:04.183Z,134
2018-03-02T14:42:06.604Z,124
2018-03-02T14:43:09.318Z,110
2018-03-02T14:44:11.735Z,99
2018-03-02T14:45:14.161Z,113
2018-03-02T14:46:16.578Z,121
2018-03-02T14:47:19.067Z,135
2018-03-02T14:48:21.428Z,145
2018-03-02T14:49:23.849Z,126